Time;durP1;ratioP1;P1;durP2;ratioP2;P2;SDS_P1;SDS_P2;PMS_P1;PMS_P2;Temp;Humidity;BMP_temperature;BMP_pressure;BME280_temperature;BME280_humidity;BME280_pressure;Samples;Min_cycle;Max_cycle;Signal;HPM_P1;HPM_P2
2021/04/19 00:00:03;;;;;;;38.70;28.97;;;;;;;8.90;81.12;100313.10;115314;1200;103040;-84
2021/04/19 00:02:31;;;;;;;39.20;28.40;;;;;;;8.87;80.91;100308.83;115466;1199;101868;-84
2021/04/19 00:04:59;;;;;;;39.67;29.40;;;;;;;8.85;81.29;100305.42;115565;1199;102958;-84
2021/04/19 00:07:26;;;;;;;35.13;27.03;;;;;;;8.82;80.92;100309.84;115380;1199;103022;-84
2021/04/19 00:09:54;;;;;;;34.00;26.30;;;;;;;8.79;81.12;100306.39;115247;1199;103985;-84
2021/04/19 00:12:21;;;;;;;38.43;29.13;;;;;;;8.77;81.47;100302.13;115347;1200;105045;-84
2021/04/19 00:14:49;;;;;;;41.50;30.03;;;;;;;8.75;81.48;100301.31;115489;1198;103102;-84
2021/04/19 00:17:16;;;;;;;39.27;29.50;;;;;;;8.72;81.46;100293.59;115334;1198;100820;-84
2021/04/19 00:19:44;;;;;;;37.10;27.45;;;;;;;8.69;81.55;100299.72;115278;1199;103073;-84
2021/04/19 00:22:12;;;;;;;41.80;28.80;;;;;;;8.67;81.33;100292.85;115316;1199;103070;-84
2021/04/19 00:24:39;;;;;;;35.83;27.10;;;;;;;8.63;81.61;100289.48;115286;1199;103063;-84
2021/04/19 00:27:07;;;;;;;34.37;26.33;;;;;;;8.60;81.43;100292.13;115227;1199;103197;-84
2021/04/19 00:29:35;;;;;;;39.13;28.60;;;;;;;8.56;81.57;100292.23;115252;1199;103140;-84
2021/04/19 00:32:03;;;;;;;40.63;27.17;;;;;;;8.53;81.48;100297.52;115252;1199;101366;-84
2021/04/19 00:34:31;;;;;;;35.57;27.17;;;;;;;8.50;81.50;100292.39;115253;1199;103169;-84
2021/04/19 00:36:58;;;;;;;39.90;28.83;;;;;;;8.45;81.65;100285.56;115285;1200;103426;-84
2021/04/19 00:39:26;;;;;;;39.70;27.93;;;;;;;8.40;81.75;100282.19;115244;1199;103075;-84
2021/04/19 00:41:53;;;;;;;36.87;27.70;;;;;;;8.37;81.51;100292.66;115299;1200;101351;-84
2021/04/19 00:44:21;;;;;;;34.67;26.53;;;;;;;8.34;81.51;100297.07;115443;1199;103105;-84
2021/04/19 00:46:49;;;;;;;35.20;26.43;;;;;;;8.31;81.61;100303.16;115429;1199;103172;-84
2021/04/19 00:49:17;;;;;;;35.95;26.70;;;;;;;8.28;81.76;100303.23;115380;1200;103101;-83
2021/04/19 00:51:46;;;;;;;32.93;25.90;;;;;;;8.25;81.61;100303.28;115239;1198;103050;-83
2021/04/19 00:54:14;;;;;;;33.40;26.40;;;;;;;8.24;82.01;100308.51;115483;1197;103532;-83
2021/04/19 00:56:42;;;;;;;35.77;26.97;;;;;;;8.23;81.88;100309.39;115273;1200;103038;-83
2021/04/19 00:59:09;;;;;;;33.87;26.40;;;;;;;8.19;81.64;100314.66;115192;1198;103486;-84
2021/04/19 01:01:37;;;;;;;34.47;26.33;;;;;;;8.17;81.83;100310.39;115511;1199;103057;-83
2021/04/19 01:04:05;;;;;;;34.30;26.00;;;;;;;8.15;81.86;100312.17;115250;1199;103573;-83
2021/04/19 01:06:33;;;;;;;36.27;26.43;;;;;;;8.15;82.02;100319.97;115317;1199;103147;-83
2021/04/19 01:09:00;;;;;;;32.97;26.07;;;;;;;8.13;82.01;100311.36;115370;1198;102560;-83
2021/04/19 01:11:29;;;;;;;32.93;24.87;;;;;;;8.12;81.75;100317.44;115529;1198;102983;-83
2021/04/19 01:13:59;;;;;;;34.37;26.47;;;;;;;8.09;82.32;100313.16;115240;1199;103034;-84
2021/04/19 01:16:27;;;;;;;33.07;26.80;;;;;;;8.08;82.05;100310.61;115240;1198;103158;-84
2021/04/19 01:18:57;;;;;;;35.90;27.80;;;;;;;8.06;82.19;100308.01;115444;1199;103479;-83
2021/04/19 01:21:27;;;;;;;35.23;27.10;;;;;;;8.03;82.32;100312.42;115526;1199;103124;-83
2021/04/19 01:23:54;;;;;;;36.73;27.63;;;;;;;8.02;81.87;100310.71;115471;1199;103015;-83
2021/04/19 01:26:23;;;;;;;40.73;30.17;;;;;;;8.00;82.38;100302.09;115264;1198;103226;-83
2021/04/19 01:28:53;;;;;;;39.23;29.30;;;;;;;7.98;82.24;100309.07;115285;1199;103121;-83
2021/04/19 01:31:23;;;;;;;41.07;30.33;;;;;;;7.97;82.34;100304.77;115242;1199;103025;-83
2021/04/19 01:33:54;;;;;;;40.97;29.97;;;;;;;7.95;82.06;100301.34;115358;1199;101904;-83
2021/04/19 01:36:25;;;;;;;40.50;31.15;;;;;;;7.93;82.14;100305.72;115217;1200;103115;-83
2021/04/19 01:38:55;;;;;;;40.87;31.37;;;;;;;7.91;82.07;100303.16;115263;1198;103613;-84
2021/04/19 01:41:22;;;;;;;40.20;30.73;;;;;;;7.89;82.66;100305.75;115463;1200;103223;-83
2021/04/19 01:43:50;;;;;;;41.77;31.33;;;;;;;7.89;82.29;100304.91;115353;1199;103473;-83
2021/04/19 01:46:18;;;;;;;44.23;32.57;;;;;;;7.86;82.44;100303.23;115255;1198;103083;-83
2021/04/19 01:48:46;;;;;;;43.80;32.70;;;;;;;7.85;82.19;100298.06;115252;1200;103689;-83
2021/04/19 01:51:14;;;;;;;45.00;32.93;;;;;;;7.85;82.45;100306.71;115286;1200;103034;-84
2021/04/19 01:53:42;;;;;;;46.37;33.23;;;;;;;7.83;82.55;100305.89;115300;1199;103402;-84
2021/04/19 01:56:10;;;;;;;47.60;33.40;;;;;;;7.82;82.64;100303.33;115445;1199;103001;-84
2021/04/19 01:58:41;;;;;;;45.83;33.90;;;;;;;7.82;82.84;100316.31;115250;1198;102992;-84
2021/04/19 02:01:09;;;;;;;47.87;35.40;;;;;;;7.79;82.82;100309.44;115159;1199;103168;-84
2021/04/19 02:03:47;;;;;;;49.45;35.40;;;;;;;7.79;82.78;100304.25;115263;1200;102989;-84
2021/04/19 02:06:23;;;;;;;;;;;;;;;7.77;82.77;100295.64;115454;1204;103047;-83
2021/04/19 02:09:29;;;;;;;47.57;34.30;;;;;;;7.74;83.00;100298.30;115303;1199;100695;-83
2021/04/19 02:12:16;;;;;;;47.40;34.60;;;;;;;7.72;82.98;100304.38;115066;1201;102104;-84
2021/04/19 02:15:07;;;;;;;47.55;33.60;;;;;;;7.70;82.99;100299.22;114924;1203;103242;-83
2021/04/19 02:17:46;;;;;;;46.57;34.60;;;;;;;7.69;82.97;100297.52;114898;1203;103137;-83
2021/04/19 02:20:33;;;;;;;50.70;36.70;;;;;;;7.67;82.83;100299.28;115003;1203;103057;-83
2021/04/19 02:23:14;;;;;;;49.85;35.30;;;;;;;7.65;82.63;100298.46;115088;1202;103171;-83
2021/04/19 02:25:43;;;;;;;51.60;36.50;;;;;;;7.63;82.71;100287.26;115028;1202;103136;-83
2021/04/19 02:28:19;;;;;;;46.70;33.80;;;;;;;7.64;82.89;100288.97;114925;1202;103169;-83
2021/04/19 02:30:51;;;;;;;46.77;33.03;;;;;;;7.62;83.34;100292.48;114938;1201;103111;-83
2021/04/19 02:33:22;;;;;;;48.20;34.50;;;;;;;7.61;83.18;100294.22;115045;1203;103129;-84
2021/04/19 02:35:51;;;;;;;49.05;34.80;;;;;;;7.59;83.18;100298.59;114930;1201;103818;-83
2021/04/19 02:38:23;;;;;;;46.73;33.00;;;;;;;7.56;83.07;100296.06;114943;1202;103241;-83
2021/04/19 02:40:54;;;;;;;46.05;33.20;;;;;;;7.54;82.91;100295.20;114895;1203;102851;-84
2021/04/19 02:43:24;;;;;;;50.30;36.23;;;;;;;7.51;82.82;100295.27;115085;1199;103085;-84
2021/04/19 02:45:53;;;;;;;47.67;35.60;;;;;;;7.50;83.05;100291.82;115309;1199;103031;-84
2021/04/19 02:48:24;;;;;;;46.90;33.70;;;;;;;7.50;83.14;100293.56;115200;1199;103101;-84
2021/04/19 02:51:20;;;;;;;52.80;37.13;;;;;;;7.50;83.18;100296.16;115317;1200;103060;-84
2021/04/19 02:53:49;;;;;;;47.50;34.90;;;;;;;7.50;83.50;100290.97;115276;1199;103022;-84
2021/04/19 02:56:17;;;;;;;47.00;33.23;;;;;;;7.48;83.28;100292.73;115243;1199;103088;-84
2021/04/19 02:58:53;;;;;;;47.67;34.47;;;;;;;7.46;83.63;100294.51;115201;1199;103130;-84
2021/04/19 03:01:29;;;;;;;45.20;32.70;;;;;;;7.47;83.72;100291.03;115229;1197;103089;-84
2021/04/19 03:04:09;;;;;;;46.13;33.33;;;;;;;7.43;83.50;100291.98;115383;1197;103025;-84
2021/04/19 03:06:43;;;;;;;53.67;37.23;;;;;;;7.41;83.58;100292.01;115279;1199;102877;-84
2021/04/19 03:09:16;;;;;;;51.65;37.40;;;;;;;7.40;83.54;100294.63;115217;1198;103134;-84
2021/04/19 03:11:52;;;;;;;52.40;34.80;;;;;;;7.39;83.21;100295.52;115267;1199;102905;-83
2021/04/19 03:14:25;;;;;;;48.20;36.08;;;;;;;7.38;83.49;100293.81;115185;1199;103034;-84
2021/04/19 03:17:10;;;;;;;52.15;36.08;;;;;;;7.37;83.39;100295.55;115326;1200;103097;-84
2021/04/19 03:20:08;;;;;;;50.47;35.33;;;;;;;7.37;83.59;100299.88;115255;1198;102996;-84
2021/04/19 03:23:02;;;;;;;52.37;35.73;;;;;;;7.35;83.90;100299.03;115206;1199;102989;-84
2021/04/19 03:25:38;;;;;;;52.73;34.37;;;;;;;7.35;83.52;100297.28;115209;1199;102969;-84
2021/04/19 03:28:08;;;;;;;53.50;35.63;;;;;;;7.35;83.58;100299.88;115276;1198;103095;-84
2021/04/19 03:30:35;;;;;;;53.40;36.20;;;;;;;7.36;83.60;100298.14;115219;1200;103110;-84
2021/04/19 03:33:09;;;;;;;51.63;35.70;;;;;;;7.38;83.81;100306.78;115249;1200;103181;-84
2021/04/19 03:35:39;;;;;;;52.77;36.33;;;;;;;7.37;83.72;100298.14;115169;1200;103095;-84
2021/04/19 03:38:16;;;;;;;50.40;34.20;;;;;;;7.38;83.66;100304.19;115353;1199;103054;-84
2021/04/19 03:40:45;;;;;;;46.13;33.67;;;;;;;7.38;83.59;100301.59;115286;1199;103062;-84
2021/04/19 03:43:18;;;;;;;46.97;34.47;;;;;;;7.36;83.43;100301.63;115197;1199;103124;-84
2021/04/19 03:45:57;;;;;;;46.20;33.27;;;;;;;7.38;83.83;100306.78;115209;1199;103102;-84
2021/04/19 03:48:55;;;;;;;48.50;34.57;;;;;;;7.40;83.86;100307.61;115246;1198;103156;-84
2021/04/19 03:51:32;;;;;;;55.90;37.90;;;;;;;7.41;83.87;100307.58;115431;1199;103101;-84
2021/04/19 03:54:01;;;;;;;59.70;42.77;;;;;;;7.44;83.65;100306.66;115235;1199;103046;-84
2021/04/19 03:56:33;;;;;;;60.67;43.60;;;;;;;7.44;83.75;100304.92;115239;1199;103114;-84
2021/04/19 03:59:10;;;;;;;62.10;43.53;;;;;;;7.48;83.80;100305.71;115447;1199;102820;-84
2021/04/19 04:01:43;;;;;;;63.08;45.50;;;;;;;7.51;84.00;100300.45;115200;1199;103037;-84
2021/04/19 04:04:14;;;;;;;66.17;45.93;;;;;;;7.55;83.68;100309.92;115355;1198;103067;-84
2021/04/19 04:07:04;;;;;;;66.60;46.07;;;;;;;7.59;83.63;100311.57;115236;1199;103019;-84
2021/04/19 04:09:43;;;;;;;61.47;43.87;;;;;;;7.65;83.49;100315.78;115291;1199;103100;-84
2021/04/19 04:12:12;;;;;;;65.20;45.97;;;;;;;7.68;83.96;100315.72;115278;1198;102977;-84
2021/04/19 04:14:53;;;;;;;64.23;44.87;;;;;;;7.73;83.54;100314.77;115617;1199;103194;-84
2021/04/19 04:17:26;;;;;;;56.30;41.57;;;;;;;7.80;83.51;100316.34;115197;1198;103136;-84
2021/04/19 04:20:18;;;;;;;58.43;41.43;;;;;;;7.87;83.62;100319.66;115253;1199;103095;-84
2021/04/19 04:22:52;;;;;;;54.30;38.33;;;;;;;7.93;83.47;100316.11;115262;1199;103117;-84
2021/04/19 04:25:25;;;;;;;51.83;38.10;;;;;;;7.98;83.21;100315.12;115259;1198;103091;-83
2021/04/19 04:27:54;;;;;;;54.05;38.85;;;;;;;8.05;83.00;100321.03;115208;1199;103203;-83
2021/04/19 04:30:23;;;;;;;53.83;37.63;;;;;;;8.14;83.21;100316.52;115241;1199;103019;-83
2021/04/19 04:33:09;;;;;;;55.33;38.80;;;;;;;8.65;83.88;100313.69;115271;1199;103031;-84
2021/04/19 04:35:40;;;;;;;45.27;35.33;;;;;;;9.46;83.17;100324.67;115229;1199;103072;-84
2021/04/19 04:38:12;;;;;;;44.00;34.20;;;;;;;10.35;82.39;100317.85;115367;1202;101750;-83
2021/04/19 04:40:52;;;;;;;39.57;31.47;;;;;;;11.37;81.34;100298.89;115464;1199;103034;-83
2021/04/19 04:43:23;;;;;;;36.80;28.53;;;;;;;12.30;79.87;100305.98;115242;1198;102990;-82
2021/04/19 04:45:58;;;;;;;33.80;26.90;;;;;;;13.19;78.50;100303.30;115367;1199;103063;-83
2021/04/19 04:48:44;;;;;;;29.63;25.00;;;;;;;13.99;76.41;100299.81;115335;1200;103059;-84
2021/04/19 04:51:18;;;;;;;28.90;23.47;;;;;;;14.76;74.61;100295.36;115348;1199;103139;-84
2021/04/19 04:53:51;;;;;;;47.60;32.70;;;;;;;15.15;72.71;100303.04;115150;1199;102964;-84
2021/04/19 04:56:23;;;;;;;27.77;23.40;;;;;;;14.81;71.41;100311.73;115299;1199;103114;-84
2021/04/19 04:58:57;;;;;;;25.60;22.23;;;;;;;14.33;70.47;100325.35;115232;1199;102983;-84
2021/04/19 05:01:28;;;;;;;26.97;21.33;;;;;;;14.10;71.57;100321.17;115489;1199;102963;-84
2021/04/19 05:03:57;;;;;;;23.50;20.13;;;;;;;14.71;71.12;100318.33;115219;1200;103101;-84
2021/04/19 05:06:26;;;;;;;23.50;19.80;;;;;;;15.47;70.48;100309.30;115246;1198;103146;-84
2021/04/19 05:08:54;;;;;;;24.50;19.87;;;;;;;16.17;68.99;100313.51;115249;1199;103117;-84
2021/04/19 05:11:22;;;;;;;20.93;18.63;;;;;;;16.74;67.91;100308.61;115214;1200;103175;-84
2021/04/19 05:13:49;;;;;;;22.55;18.40;;;;;;;17.47;66.91;100308.77;115231;1199;102977;-83
2021/04/19 05:16:25;;;;;;;21.03;18.53;;;;;;;18.24;65.78;100302.30;115531;1199;103076;-83
2021/04/19 05:18:53;;;;;;;21.00;18.20;;;;;;;18.98;63.92;100291.35;115354;1199;102986;-82
2021/04/19 05:21:21;;;;;;;21.07;18.07;;;;;;;19.60;63.11;100302.19;115510;1199;102967;-83
2021/04/19 05:23:49;;;;;;;20.10;17.93;;;;;;;20.11;61.76;100294.22;115456;1199;103034;-84
2021/04/19 05:26:17;;;;;;;23.10;17.93;;;;;;;20.01;59.69;100290.51;115386;1199;103096;-82
2021/04/19 05:28:45;;;;;;;18.83;16.37;;;;;;;19.38;59.88;100294.81;115312;1199;103152;-83
2021/04/19 05:31:13;;;;;;;22.65;17.45;;;;;;;18.62;59.50;100299.86;115257;1199;103104;-83
2021/04/19 05:33:41;;;;;;;20.50;18.30;;;;;;;17.86;59.84;100299.41;115204;1198;103626;-83
2021/04/19 05:36:13;;;;;;;20.50;18.30;;;;;;;17.37;60.55;100300.53;115306;1199;103234;-83
2021/04/19 05:38:44;;;;;;;23.43;20.23;;;;;;;17.67;61.52;100299.66;115228;1199;103431;-83
2021/04/19 05:41:14;;;;;;;22.77;20.37;;;;;;;18.03;60.64;100300.06;115381;1199;103044;-83
2021/04/19 05:43:42;;;;;;;22.33;19.93;;;;;;;17.97;59.39;100304.89;115468;1199;103021;-83
2021/04/19 05:46:14;;;;;;;21.87;19.60;;;;;;;17.59;59.44;100296.61;115265;1199;103465;-84
2021/04/19 05:48:43;;;;;;;21.80;19.50;;;;;;;17.07;60.22;100292.66;115438;1198;103432;-83
2021/04/19 05:51:23;;;;;;;21.90;19.50;;;;;;;16.69;61.61;100294.84;115416;1200;103461;-83
2021/04/19 05:53:53;;;;;;;22.37;20.03;;;;;;;16.55;61.63;100294.75;115284;1199;103689;-83
2021/04/19 05:56:37;;;;;;;22.57;20.17;;;;;;;17.24;61.78;100296.95;115251;1199;103015;-83
2021/04/19 05:59:17;;;;;;;22.97;19.63;;;;;;;18.39;60.87;100290.77;115518;1200;103068;-83
2021/04/19 06:01:49;;;;;;;20.47;18.27;;;;;;;19.98;59.38;100294.23;115232;1200;102964;-83
2021/04/19 06:04:41;;;;;;;18.60;16.50;;;;;;;21.50;57.46;100291.91;115199;1199;103033;-83
2021/04/19 06:07:13;;;;;;;18.33;16.43;;;;;;;23.04;54.99;100283.08;115108;1199;101513;-83
2021/04/19 06:10:12;;;;;;;27.07;23.13;;;;;;;24.40;53.40;100273.99;115258;1199;103088;-83
2021/04/19 06:12:54;;;;;;;20.20;18.10;;;;;;;25.61;50.39;100274.41;115301;1199;103069;-82
2021/04/19 06:15:24;;;;;;;16.17;14.53;;;;;;;26.66;49.50;100268.73;115177;1199;103312;-82
2021/04/19 06:17:55;;;;;;;16.40;14.70;;;;;;;27.58;47.32;100268.33;115258;1199;103134;-81
2021/04/19 06:20:24;;;;;;;29.07;26.03;;;;;;;28.62;46.34;100263.61;115236;1198;103143;-82
2021/04/19 06:22:54;;;;;;;26.30;23.60;;;;;;;29.51;45.02;100265.51;115261;1199;103028;-82
2021/04/19 06:25:23;;;;;;;15.67;14.17;;;;;;;30.30;43.47;100269.11;115297;1199;103011;-82
2021/04/19 06:28:11;;;;;;;18.73;14.40;;;;;;;31.00;42.10;100255.54;115399;1198;103142;-81
2021/04/19 06:30:41;;;;;;;21.20;19.00;;;;;;;31.63;40.86;100257.00;115467;1200;103162;-81
2021/04/19 06:33:19;;;;;;;16.50;14.90;;;;;;;32.03;39.46;100252.16;115230;1199;103548;-83
2021/04/19 06:35:48;;;;;;;14.37;13.00;;;;;;;32.38;38.40;100251.38;115500;1200;103598;-83
2021/04/19 06:38:17;;;;;;;14.23;12.67;;;;;;;32.69;37.05;100244.86;115505;1199;103188;-82
2021/04/19 06:40:46;;;;;;;13.97;12.43;;;;;;;32.90;36.44;100242.17;115165;1200;103162;-82
2021/04/19 06:43:15;;;;;;;13.73;12.33;;;;;;;33.31;35.91;100241.45;115389;1198;103003;-82
2021/04/19 06:45:42;;;;;;;14.07;12.60;;;;;;;33.67;34.79;100240.47;115240;1199;102983;-83
2021/04/19 06:48:11;;;;;;;13.73;11.97;;;;;;;34.03;33.92;100243.80;115294;1200;102990;-82
2021/04/19 06:50:40;;;;;;;13.50;12.10;;;;;;;34.36;34.16;100241.24;115165;1200;102977;-84
2021/04/19 06:53:08;;;;;;;13.80;12.37;;;;;;;34.77;33.40;100227.55;115427;1200;103201;-84
2021/04/19 06:55:38;;;;;;;12.27;11.07;;;;;;;34.95;31.98;100236.98;115241;1198;103006;-84
2021/04/19 06:58:06;;;;;;;12.90;11.60;;;;;;;34.82;31.36;100235.89;115203;1199;102848;-81
2021/04/19 07:00:36;;;;;;;13.63;12.33;;;;;;;35.07;30.23;100238.03;115441;1197;103156;-82
2021/04/19 07:03:06;;;;;;;12.30;11.10;;;;;;;35.21;30.59;100239.70;115224;1199;103025;-82
2021/04/19 07:05:36;;;;;;;16.27;14.57;;;;;;;35.47;29.88;100238.84;115257;1200;103124;-82
2021/04/19 07:08:20;;;;;;;14.93;12.10;;;;;;;35.76;29.90;100239.41;115217;1199;103163;-82
2021/04/19 07:10:54;;;;;;;12.43;10.30;;;;;;;35.97;29.06;100237.27;115338;1199;103182;-81
2021/04/19 07:13:23;;;;;;;14.80;11.97;;;;;;;36.10;28.95;100238.27;115222;1198;103055;-82
2021/04/19 07:15:51;;;;;;;13.17;10.63;;;;;;;36.19;28.92;100231.53;115260;1199;103124;-83
2021/04/19 07:18:18;;;;;;;12.73;10.97;;;;;;;36.13;28.33;100237.83;115428;1198;103488;-83
2021/04/19 07:20:47;;;;;;;12.37;11.17;;;;;;;36.47;28.65;100240.19;115224;1199;103105;-83
2021/04/19 07:23:15;;;;;;;12.73;11.40;;;;;;;36.77;28.00;100237.66;115396;1199;103018;-82
2021/04/19 07:25:44;;;;;;;13.53;10.90;;;;;;;36.87;27.17;100229.89;115448;1199;103037;-83
2021/04/19 07:28:13;;;;;;;12.37;11.07;;;;;;;36.64;25.87;100245.09;115236;1199;103478;-84
2021/04/19 07:30:43;;;;;;;11.17;10.07;;;;;;;36.18;26.50;100230.70;115312;1199;103082;-84
2021/04/19 07:33:27;;;;;;;11.17;10.07;;;;;;;35.48;26.37;100234.25;115469;1198;103396;-84
2021/04/19 07:35:56;;;;;;;13.20;10.77;;;;;;;35.19;27.04;100230.08;115277;1199;103463;-84
2021/04/19 07:38:35;;;;;;;11.90;10.57;;;;;;;35.04;26.36;100233.03;115240;1199;103111;-84
2021/04/19 07:41:04;;;;;;;12.67;10.20;;;;;;;35.71;27.83;100234.60;115261;1199;103226;-85
2021/04/19 07:43:37;;;;;;;10.90;9.80;;;;;;;36.20;26.70;100235.91;115246;1200;103632;-85
2021/04/19 07:46:14;;;;;;;11.50;10.37;;;;;;;36.47;25.93;100229.32;115173;1200;102980;-85
2021/04/19 07:48:44;;;;;;;10.70;9.37;;;;;;;36.71;25.72;100233.12;115468;1200;103018;-84
2021/04/19 07:51:27;;;;;;;11.50;10.40;;;;;;;36.94;25.04;100231.71;115421;1198;103091;-83
2021/04/19 07:54:15;;;;;;;10.87;9.80;;;;;;;37.05;25.39;100239.16;115443;1199;103127;-83
2021/04/19 07:56:45;;;;;;;10.30;9.30;;;;;;;37.29;24.96;100240.22;115265;1200;103095;-84
2021/04/19 07:59:24;;;;;;;9.27;8.37;;;;;;;37.32;25.34;100231.61;115224;1198;102979;-84
2021/04/19 08:02:12;;;;;;;10.25;9.20;;;;;;;37.56;24.25;100236.19;115220;1200;102983;-84
2021/04/19 08:04:54;;;;;;;10.75;7.90;;;;;;;37.68;23.64;100228.91;115481;1199;102990;-84
2021/04/19 08:07:25;;;;;;;11.63;8.20;;;;;;;37.82;23.92;100236.96;115366;1199;103011;-84
2021/04/19 08:10:04;;;;;;;10.57;7.83;;;;;;;38.00;23.64;100229.61;115213;1199;103134;-84
2021/04/19 08:12:39;;;;;;;9.50;8.23;;;;;;;38.09;23.73;100239.14;115254;1199;101604;-84
2021/04/19 08:15:12;;;;;;;9.10;8.10;;;;;;;38.10;23.35;100238.08;115441;1198;103017;-83
2021/04/19 08:17:40;;;;;;;9.60;8.60;;;;;;;38.18;22.82;100241.53;115232;1199;103102;-84
2021/04/19 08:20:23;;;;;;;8.20;7.23;;;;;;;38.27;22.67;100240.20;115226;1199;103091;-84
2021/04/19 08:22:51;;;;;;;9.40;7.57;;;;;;;38.19;22.45;100235.05;115190;1199;101320;-83
2021/04/19 08:25:23;;;;;;;9.40;8.40;;;;;;;37.96;21.50;100233.02;115243;1199;103015;-84
2021/04/19 08:28:03;;;;;;;11.43;8.20;;;;;;;37.55;21.48;100237.24;115234;1199;103467;-83
2021/04/19 08:30:30;;;;;;;9.17;8.23;;;;;;;37.16;22.17;100232.97;115273;1199;103300;-83
2021/04/19 08:32:59;;;;;;;10.23;7.63;;;;;;;36.54;22.29;100235.53;115267;1199;103098;-83
2021/04/19 08:35:28;;;;;;;13.97;7.93;;;;;;;36.32;22.98;100228.78;115487;1199;103085;-83
2021/04/19 08:37:58;;;;;;;10.53;8.13;;;;;;;36.46;22.75;100235.80;115176;1199;101990;-83
2021/04/19 08:40:28;;;;;;;14.85;8.50;;;;;;;36.28;22.50;100232.95;115245;1199;103172;-83
2021/04/19 08:42:56;;;;;;;10.77;8.80;;;;;;;36.05;22.56;100229.92;115256;1199;102868;-84
2021/04/19 08:45:25;;;;;;;8.07;7.27;;;;;;;35.85;23.15;100228.13;115552;1199;102999;-84
2021/04/19 08:47:54;;;;;;;10.17;7.53;;;;;;;35.71;22.25;100226.46;115218;1200;103151;-84
2021/04/19 08:50:27;;;;;;;9.27;6.53;;;;;;;35.37;21.61;100227.59;115304;1198;102967;-84
2021/04/19 08:52:57;;;;;;;11.10;7.30;;;;;;;34.59;21.76;100232.75;115184;1200;103021;-86
2021/04/19 08:55:26;;;;;;;10.03;7.50;;;;;;;34.07;21.63;100239.64;115612;1199;103261;-85
2021/04/19 08:58:01;;;;;;;10.57;7.63;;;;;;;33.42;19.89;100238.25;115281;1200;103126;-85
2021/04/19 09:00:29;;;;;;;8.57;7.67;;;;;;;31.91;21.58;100243.70;115198;1200;103001;-84
2021/04/19 09:03:00;;;;;;;10.87;7.50;;;;;;;31.39;22.91;100238.36;115360;1199;103102;-85
2021/04/19 09:05:28;;;;;;;8.33;6.40;;;;;;;30.81;22.86;100240.72;115293;1199;103056;-85
2021/04/19 09:08:12;;;;;;;8.33;6.90;;;;;;;30.52;23.48;100236.03;115148;1200;103033;-84
2021/04/19 09:11:10;;;;;;;7.63;6.50;;;;;;;30.06;22.69;100227.04;115212;1200;102237;-84
2021/04/19 09:13:44;;;;;;;10.87;7.00;;;;;;;29.77;23.22;100235.69;115172;1200;103105;-84
2021/04/19 09:16:21;;;;;;;8.27;6.37;;;;;;;29.54;25.06;100234.77;115334;1198;103564;-83
2021/04/19 09:18:58;;;;;;;9.73;7.20;;;;;;;29.47;23.84;100240.84;115191;1199;103086;-84
2021/04/19 09:21:50;;;;;;;11.10;7.33;;;;;;;29.30;23.76;100233.78;115507;1199;103076;-83
2021/04/19 09:24:20;;;;;;;8.63;6.60;;;;;;;29.22;24.44;100241.00;115250;1198;103002;-83
2021/04/19 09:26:58;;;;;;;9.53;6.23;;;;;;;29.44;25.43;100230.41;115247;1200;103068;-83
2021/04/19 09:29:26;;;;;;;8.37;7.10;;;;;;;29.58;24.54;100231.55;115551;1199;103462;-83
2021/04/19 09:31:58;;;;;;;11.23;6.50;;;;;;;29.63;23.13;100225.68;115545;1199;103137;-83
2021/04/19 09:34:49;;;;;;;9.13;6.33;;;;;;;29.24;23.73;100223.70;115443;1199;103185;-83
2021/04/19 09:37:20;;;;;;;13.75;6.85;;;;;;;29.09;22.71;100222.73;115318;1198;103223;-83
2021/04/19 09:40:02;;;;;;;9.93;6.23;;;;;;;28.74;22.58;100226.56;115276;1198;103018;-82
2021/04/19 09:42:55;;;;;;;6.70;5.87;;;;;;;27.96;22.63;100224.16;115281;1197;103085;-83
2021/04/19 09:45:46;;;;;;;9.30;6.20;;;;;;;27.52;23.13;100224.27;115276;1199;102938;-82
2021/04/19 09:48:38;;;;;;;7.90;5.73;;;;;;;26.95;24.32;100225.69;115564;1200;103021;-82
2021/04/19 09:51:15;;;;;;;7.17;6.43;;;;;;;27.07;24.24;100225.30;115498;1199;103011;-82
2021/04/19 09:53:53;;;;;;;7.40;6.30;;;;;;;26.50;23.36;100230.13;115520;1199;102984;-82
2021/04/19 09:56:24;;;;;;;8.63;6.83;;;;;;;26.09;23.63;100239.52;115498;1199;103038;-82
2021/04/19 09:58:52;;;;;;;11.70;7.00;;;;;;;25.90;22.64;100231.59;115265;1199;103129;-82
2021/04/19 10:01:21;;;;;;;9.47;6.73;;;;;;;25.52;23.82;100233.41;115417;1199;103031;-84
2021/04/19 10:03:51;;;;;;;9.30;7.10;;;;;;;25.44;24.35;100235.94;115612;1199;103509;-86
2021/04/19 10:06:46;;;;;;;9.37;7.43;;;;;;;25.11;22.21;100247.11;115304;1198;103419;-84
2021/04/19 10:09:16;;;;;;;9.27;6.43;;;;;;;24.48;22.97;100225.34;115604;1198;103084;-83
2021/04/19 10:11:49;;;;;;;9.70;6.83;;;;;;;24.26;25.39;100232.57;115297;1198;103098;-84
2021/04/19 10:14:18;;;;;;;9.37;7.17;;;;;;;24.21;23.97;100242.77;115337;1199;103424;-84
2021/04/19 10:16:51;;;;;;;14.93;7.30;;;;;;;24.23;25.52;100237.30;115365;1200;102929;-83
2021/04/19 10:19:27;;;;;;;10.67;7.07;;;;;;;24.37;25.62;100239.62;115385;1198;103446;-83
2021/04/19 10:22:04;;;;;;;9.90;6.40;;;;;;;24.26;25.68;100232.57;115224;1200;102224;-83
2021/04/19 10:24:48;;;;;;;13.20;6.65;;;;;;;23.95;26.19;100226.45;115303;1198;103073;-82
2021/04/19 10:27:27;;;;;;;10.17;7.30;;;;;;;24.14;25.53;100228.33;115250;1199;101921;-84
2021/04/19 10:30:17;;;;;;;10.70;7.53;;;;;;;23.83;24.18;100232.00;115237;1198;103108;-85
2021/04/19 10:32:46;;;;;;;11.67;6.60;;;;;;;23.15;25.18;100232.45;115232;1199;101353;-83
2021/04/19 10:35:36;;;;;;;9.73;6.57;;;;;;;22.62;25.37;100236.91;115351;1200;103142;-83
2021/04/19 10:38:16;;;;;;;8.27;6.63;;;;;;;21.93;26.28;100225.70;115381;1198;103175;-84
2021/04/19 10:40:44;;;;;;;10.60;6.57;;;;;;;21.49;27.28;100231.84;115317;1199;103063;-83
2021/04/19 10:43:13;;;;;;;11.60;6.97;;;;;;;21.32;28.66;100227.84;115377;1200;103043;-85
2021/04/19 10:45:42;;;;;;;9.23;6.97;;;;;;;21.35;29.40;100232.90;115479;1200;103036;-83
2021/04/19 10:48:22;;;;;;;8.20;6.50;;;;;;;21.54;29.02;100227.01;115251;1199;101757;-85
2021/04/19 10:50:52;;;;;;;8.97;6.37;;;;;;;21.52;27.45;100232.44;115240;1199;103735;-84
2021/04/19 10:53:38;;;;;;;13.90;6.67;;;;;;;21.50;28.02;100234.38;115268;1199;103034;-83
2021/04/19 10:56:08;;;;;;;;;;;;;;;21.32;26.73;100236.64;115309;1204;103081;-83
2021/04/19 10:58:38;;;;;;;9.00;6.50;;;;;;;21.12;27.60;100229.33;115281;1199;103067;-85
2021/04/19 11:01:07;;;;;;;8.77;6.30;;;;;;;21.17;27.87;100234.28;115410;1199;103456;-85
2021/04/19 11:03:36;;;;;;;8.63;6.60;;;;;;;21.38;27.81;100227.38;115220;1200;103580;-85
2021/04/19 11:06:10;;;;;;;7.43;6.17;;;;;;;21.51;26.29;100227.25;115311;1199;103113;-85
2021/04/19 11:08:56;;;;;;;12.60;6.43;;;;;;;21.23;26.87;100210.80;115303;1199;103508;-84
2021/04/19 11:11:32;;;;;;;9.60;6.23;;;;;;;21.07;26.34;100221.73;115296;1198;103082;-85
2021/04/19 11:14:24;;;;;;;8.43;6.08;;;;;;;21.06;27.00;100214.74;115291;1200;103075;-84
2021/04/19 11:17:01;;;;;;;8.67;6.00;;;;;;;21.28;26.03;100215.78;115393;1200;103226;-84
2021/04/19 11:19:46;;;;;;;7.77;5.83;;;;;;;21.36;26.16;100221.33;115278;1198;103047;-83
2021/04/19 11:22:33;;;;;;;7.33;5.40;;;;;;;21.25;25.78;100229.28;115315;1200;103546;-83
2021/04/19 11:25:15;;;;;;;9.03;5.77;;;;;;;21.04;26.19;100216.67;115567;1199;103421;-83
2021/04/19 11:27:46;;;;;;;8.40;6.50;;;;;;;20.93;26.79;100213.98;115308;1200;103158;-83
2021/04/19 11:30:24;;;;;;;8.17;5.60;;;;;;;20.86;25.92;100235.78;115281;1199;103150;-83